Time;durP1;ratioP1;P1;durP2;ratioP2;P2;SDS_P1;SDS_P2;PMS_P1;PMS_P2;Temp;Humidity;BMP_temperature;BMP_pressure;BME280_temperature;BME280_humidity;BME280_pressure;Samples;Min_cycle;Max_cycle;Signal;HPM_P1;HPM_P2
2022/06/07 00:00:51;;;;;;;12.30;10.53;;;13.70;99.90;;;;;;5059120;28;20808;-40
2022/06/07 00:03:17;;;;;;;12.20;11.00;;;13.70;99.90;;;;;;5053099;28;20428;-41
2022/06/07 00:05:43;;;;;;;11.23;10.07;;;13.70;99.90;;;;;;5058877;28;20260;-42
2022/06/07 00:08:12;;;;;;;10.47;9.47;;;13.60;99.90;;;;;;5069351;28;20430;-40
2022/06/07 00:10:38;;;;;;;10.07;9.13;;;13.60;99.90;;;;;;5068283;28;20609;-40
2022/06/07 00:13:05;;;;;;;11.33;10.13;;;13.50;99.90;;;;;;5069957;28;20518;-41
2022/06/07 00:15:30;;;;;;;10.17;9.17;;;13.50;99.90;;;;;;5063637;28;20498;-41
2022/06/07 00:17:56;;;;;;;10.10;9.10;;;13.40;99.90;;;;;;5052812;28;20420;-42
2022/06/07 00:20:22;;;;;;;10.27;9.17;;;13.40;99.90;;;;;;5056958;28;20679;-40
2022/06/07 00:22:48;;;;;;;10.73;9.57;;;13.40;99.90;;;;;;5069668;28;20196;-42
2022/06/07 00:25:16;;;;;;;10.60;9.60;;;13.40;99.90;;;;;;5058970;28;20193;-42
2022/06/07 00:27:42;;;;;;;11.40;10.10;;;13.40;99.90;;;;;;5068867;28;20438;-40
2022/06/07 00:30:11;;;;;;;10.90;9.10;;;13.40;99.90;;;;;;5066599;28;20469;-41
2022/06/07 00:32:39;;;;;;;10.53;9.43;;;13.40;99.90;;;;;;5049295;28;20776;-39
2022/06/07 00:35:05;;;;;;;10.57;9.57;;;13.30;99.90;;;;;;5060188;28;20855;-40
2022/06/07 00:37:31;;;;;;;10.23;9.23;;;13.30;99.90;;;;;;5068460;28;20766;-41
2022/06/07 00:39:57;;;;;;;10.77;9.67;;;13.30;99.90;;;;;;5063056;28;20435;-40
2022/06/07 00:42:23;;;;;;;14.43;9.20;;;13.40;99.90;;;;;;5069364;28;20560;-40
2022/06/07 00:44:48;;;;;;;11.93;9.13;;;13.50;99.90;;;;;;5069463;28;20280;-40
2022/06/07 00:47:17;;;;;;;9.57;8.10;;;13.50;99.90;;;;;;5052846;28;20708;-40
2022/06/07 00:50:14;;;;;;;12.23;9.03;;;13.50;99.90;;;;;;5057365;28;20213;-41
2022/06/07 00:52:40;;;;;;;11.20;9.17;;;13.50;99.90;;;;;;5067079;28;20453;-40
2022/06/07 00:55:07;;;;;;;11.00;9.90;;;13.50;99.90;;;;;;5066092;28;20499;-41
2022/06/07 00:57:34;;;;;;;9.83;8.77;;;13.40;99.90;;;;;;5068601;28;20185;-39
2022/06/07 00:59:59;;;;;;;9.73;8.83;;;13.40;99.90;;;;;;5068274;28;20473;-39
2022/06/07 01:02:25;;;;;;;8.90;8.00;;;13.40;99.90;;;;;;5051209;28;20463;-41
2022/06/07 01:04:51;;;;;;;10.60;9.60;;;13.40;99.90;;;;;;5055596;28;20219;-40
2022/06/07 01:12:47;;;;;;;10.27;9.27;;;13.30;99.90;;;;;;5069151;28;20441;-40
2022/06/07 01:15:13;;;;;;;9.53;8.47;;;13.40;99.90;;;;;;5067422;28;20437;-40
2022/06/07 01:17:39;;;;;;;9.43;8.40;;;13.40;99.90;;;;;;5054657;28;20417;-42
2022/06/07 01:20:05;;;;;;;9.20;8.30;;;13.40;99.90;;;;;;5053032;28;20426;-39
2022/06/07 01:22:31;;;;;;;9.10;8.20;;;13.40;99.90;;;;;;5069073;28;20191;-40
2022/06/07 01:24:57;;;;;;;8.83;7.93;;;13.40;99.90;;;;;;5059388;28;20923;-40
2022/06/07 01:27:23;;;;;;;9.40;8.43;;;13.50;99.90;;;;;;5068282;28;20677;-39
2022/06/07 01:29:49;;;;;;;9.00;8.20;;;13.40;99.90;;;;;;5068889;28;20217;-40
2022/06/07 01:32:15;;;;;;;11.70;6.73;;;13.50;99.90;;;;;;5051171;28;20552;-40
2022/06/07 01:34:43;;;;;;;8.67;7.87;;;13.50;99.90;;;;;;5054346;28;20242;-40
2022/06/07 01:37:11;;;;;;;9.00;7.90;;;13.50;99.90;;;;;;5058211;28;20518;-40
2022/06/07 01:42:21;;;;;;;8.93;7.40;;;13.50;99.90;;;;;;5068507;28;21723;-41
2022/06/07 01:44:48;;;;;;;7.40;6.70;;;13.50;99.90;;;;;;5068911;28;20435;-43
2022/06/07 01:47:19;;;;;;;6.93;6.23;;;13.50;99.90;;;;;;5053712;28;20233;-40
2022/06/07 01:49:45;;;;;;;7.73;6.77;;;13.50;99.90;;;;;;5049761;28;20504;-41
2022/06/07 01:52:12;;;;;;;6.80;5.97;;;13.50;99.90;;;;;;5061940;28;20515;-41
2022/06/07 01:54:38;;;;;;;5.60;5.10;;;13.50;99.90;;;;;;5061417;28;20412;-41
2022/06/07 01:57:08;;;;;;;6.53;5.93;;;13.60;99.90;;;;;;5061832;28;20431;-42
2022/06/07 01:59:35;;;;;;;7.37;5.27;;;13.60;99.90;;;;;;5068721;28;20536;-40
2022/06/07 02:02:01;;;;;;;8.10;5.23;;;13.70;99.90;;;;;;5055881;28;20440;-40
2022/06/07 02:04:28;;;;;;;7.40;5.93;;;13.70;99.90;;;;;;5056264;28;20419;-40
2022/06/07 02:06:53;;;;;;;5.37;4.87;;;13.70;99.90;;;;;;5064143;28;20427;-40
2022/06/07 02:09:20;;;;;;;5.73;4.60;;;13.70;99.90;;;;;;5065431;28;20459;-41
2022/06/07 02:11:46;;;;;;;5.50;4.73;;;13.70;99.90;;;;;;5065761;28;20184;-40
2022/06/07 02:14:12;;;;;;;6.97;5.17;;;13.80;99.90;;;;;;5072161;28;20430;-40
2022/06/07 02:16:39;;;;;;;5.87;5.37;;;13.80;99.90;;;;;;5063472;28;20434;-39
2022/06/07 02:19:05;;;;;;;5.40;4.90;;;13.80;99.90;;;;;;5052930;28;20424;-40
2022/06/07 02:21:32;;;;;;;5.97;4.67;;;13.80;99.90;;;;;;5053739;28;20424;-41
2022/06/07 02:23:57;;;;;;;6.20;5.60;;;13.70;99.90;;;;;;5071902;28;20502;-40
2022/06/07 02:26:37;;;;;;;5.00;4.50;;;13.70;99.90;;;;;;5067748;28;20634;-44
2022/06/07 02:29:10;;;;;;;5.53;4.40;;;13.70;99.90;;;;;;5071915;28;20211;-41
2022/06/07 02:31:38;;;;;;;4.50;4.10;;;13.70;99.90;;;;;;5063783;28;20458;-40
2022/06/07 02:34:06;;;;;;;4.60;3.73;;;13.70;99.90;;;;;;5052702;28;20487;-40
2022/06/07 02:36:33;;;;;;;8.03;5.40;;;13.70;99.90;;;;;;5060082;28;20506;-40
2022/06/07 02:39:02;;;;;;;4.30;3.90;;;13.70;99.90;;;;;;5071749;28;20502;-40
2022/06/07 02:41:31;;;;;;;7.20;4.17;;;13.70;99.90;;;;;;5058762;28;20863;-40
2022/06/07 02:43:57;;;;;;;4.73;4.23;;;13.70;99.90;;;;;;5071804;28;20455;-39
2022/06/07 02:46:22;;;;;;;4.37;3.70;;;13.70;99.90;;;;;;5065720;28;20494;-41
2022/06/07 02:48:48;;;;;;;9.47;3.87;;;13.70;99.90;;;;;;5055111;28;20428;-40
2022/06/07 02:51:14;;;;;;;4.63;4.20;;;13.70;99.90;;;;;;5059871;28;20182;-41
2022/06/07 02:53:40;;;;;;;4.60;4.20;;;13.70;99.90;;;;;;5070073;28;20442;-43
2022/06/07 02:56:06;;;;;;;3.73;3.40;;;13.70;99.90;;;;;;5061893;28;20438;-40
2022/06/07 02:58:32;;;;;;;5.53;4.30;;;13.70;99.90;;;;;;5070908;28;20234;-40
2022/06/07 03:00:58;;;;;;;4.60;3.87;;;13.80;99.90;;;;;;5069963;28;20196;-40
2022/06/07 03:03:25;;;;;;;5.20;3.93;;;13.80;99.90;;;;;;5053298;28;20419;-39
2022/06/07 03:05:51;;;;;;;4.60;3.87;;;13.80;99.90;;;;;;5062462;28;20441;-40
2022/06/07 03:08:18;;;;;;;4.40;4.00;;;13.90;99.90;;;;;;5070509;28;20560;-40
2022/06/07 03:10:46;;;;;;;6.10;4.40;;;13.90;99.90;;;;;;5065612;28;20283;-40
2022/06/07 03:13:12;;;;;;;4.23;3.93;;;13.90;99.90;;;;;;5071166;28;20432;-40
2022/06/07 03:15:39;;;;;;;4.37;3.40;;;13.90;99.90;;;;;;5071075;28;20425;-40
2022/06/07 03:18:05;;;;;;;3.83;3.37;;;13.90;99.90;;;;;;5052472;28;20436;-40
2022/06/07 03:20:31;;;;;;;7.00;4.07;;;13.80;99.90;;;;;;5056488;28;20447;-40
2022/06/07 03:22:57;;;;;;;3.47;3.17;;;13.90;99.90;;;;;;5063194;28;21075;-40
2022/06/07 03:25:24;;;;;;;7.33;3.90;;;13.80;99.90;;;;;;5070272;28;20455;-40
2022/06/07 03:27:51;;;;;;;6.70;4.20;;;13.90;99.90;;;;;;5070350;28;20185;-40
2022/06/07 03:30:17;;;;;;;4.10;3.70;;;13.80;99.90;;;;;;5070399;28;20542;-40
2022/06/07 03:32:44;;;;;;;5.80;4.93;;;13.80;99.90;;;;;;5056437;28;20515;-40
2022/06/07 03:35:11;;;;;;;4.83;3.50;;;13.80;99.90;;;;;;5061400;28;20498;-41
2022/06/07 03:37:37;;;;;;;3.60;3.30;;;13.70;99.90;;;;;;5065207;28;20448;-41
2022/06/07 03:40:05;;;;;;;4.27;3.87;;;13.70;99.90;;;;;;5066858;28;20420;-40
2022/06/07 03:42:30;;;;;;;7.60;3.93;;;13.70;99.90;;;;;;5064976;28;20434;-39
2022/06/07 03:44:56;;;;;;;3.70;3.30;;;13.70;99.90;;;;;;5069046;28;20454;-40
2022/06/07 03:47:22;;;;;;;4.47;3.00;;;13.70;99.90;;;;;;5059570;28;20194;-41
2022/06/07 03:49:47;;;;;;;4.70;3.33;;;13.70;99.90;;;;;;5065752;28;20247;-40
2022/06/07 03:52:15;;;;;;;4.50;3.40;;;13.80;99.90;;;;;;5063895;28;20209;-42
2022/06/07 03:54:41;;;;;;;6.97;4.13;;;13.70;99.90;;;;;;5068920;28;20674;-40
2022/06/07 03:57:08;;;;;;;5.33;3.70;;;13.80;99.90;;;;;;5063263;28;20458;-40
2022/06/07 03:59:34;;;;;;;4.00;3.33;;;13.70;99.90;;;;;;5070116;28;20196;-41
2022/06/07 04:02:00;;;;;;;4.00;3.30;;;13.70;99.90;;;;;;5063832;28;20432;-41
2022/06/07 04:04:26;;;;;;;4.33;3.93;;;13.70;99.90;;;;;;5058321;28;20554;-41
2022/06/07 04:09:41;;;;;;;3.50;3.20;;;13.60;99.90;;;;;;5069950;28;20546;-40
2022/06/07 04:12:08;;;;;;;7.93;3.73;;;13.70;99.90;;;;;;5067810;28;20558;-39
2022/06/07 04:14:37;;;;;;;3.37;3.07;;;13.80;99.90;;;;;;5068871;28;20424;-39
2022/06/07 04:17:03;;;;;;;5.23;3.00;;;13.80;99.90;;;;;;5063499;28;20432;-40
2022/06/07 04:19:29;;;;;;;3.70;2.87;;;13.90;99.90;;;;;;5051101;28;20428;-40
2022/06/07 04:21:55;;;;;;;3.10;2.70;;;13.90;99.90;;;;;;5059020;28;20416;-40
2022/06/07 04:24:21;;;;;;;3.90;3.10;;;13.90;99.90;;;;;;5069710;28;20651;-42
2022/06/07 04:26:47;;;;;;;3.37;2.60;;;14.00;99.90;;;;;;5058564;28;20680;-41
2022/06/07 04:29:14;;;;;;;4.10;3.20;;;14.00;99.90;;;;;;5069588;28;20225;-40
2022/06/07 04:31:39;;;;;;;3.50;3.17;;;14.00;99.90;;;;;;5064292;28;20416;-40
2022/06/07 04:34:05;;;;;;;3.33;3.03;;;14.10;99.90;;;;;;5053193;28;20421;-39
2022/06/07 04:36:32;;;;;;;3.73;3.17;;;14.10;99.90;;;;;;5061703;28;20199;-40
2022/06/07 04:39:00;;;;;;;3.97;3.10;;;14.20;99.90;;;;;;5069266;28;20805;-40
2022/06/07 04:41:25;;;;;;;9.00;3.27;;;14.20;99.90;;;;;;5054414;28;20432;-40
2022/06/07 04:43:53;;;;;;;3.90;3.07;;;14.20;99.90;;;;;;5050479;28;20431;-39
2022/06/07 04:46:20;;;;;;;4.40;3.13;;;14.20;99.90;;;;;;5050390;28;20199;-40
2022/06/07 04:48:47;;;;;;;6.70;3.10;;;14.30;99.90;;;;;;5053525;28;20534;-39
2022/06/07 04:51:18;;;;;;;4.47;3.20;;;14.10;99.90;;;;;;5049106;28;20424;-40
2022/06/07 04:53:44;;;;;;;2.60;2.40;;;14.30;99.90;;;;;;5053813;28;20457;-39
2022/06/07 04:56:13;;;;;;;4.90;3.17;;;14.40;99.90;;;;;;5066190;28;20439;-41
2022/06/07 04:58:38;;;;;;;3.33;3.03;;;14.50;99.90;;;;;;5068361;28;20431;-40
2022/06/07 05:01:22;;;;;;;6.20;2.83;;;14.60;99.90;;;;;;5061883;28;20456;-41
2022/06/07 05:03:49;;;;;;;3.63;3.30;;;14.70;99.90;;;;;;5050833;28;20228;-40
2022/06/07 05:06:16;;;;;;;4.10;2.50;;;14.90;99.90;;;;;;5049610;28;20459;-40
2022/06/07 05:08:42;;;;;;;3.70;2.47;;;15.00;99.90;;;;;;5064262;28;20434;-42
2022/06/07 05:11:07;;;;;;;3.73;2.87;;;15.00;99.90;;;;;;5061643;28;20920;-39
2022/06/07 05:13:33;;;;;;;4.00;3.13;;;14.90;99.90;;;;;;5058738;28;20738;-40
2022/06/07 05:15:59;;;;;;;3.47;2.93;;;14.90;99.90;;;;;;5054026;28;20601;-40
2022/06/07 05:18:24;;;;;;;3.50;2.87;;;15.00;99.90;;;;;;5050419;28;20189;-40
2022/06/07 05:20:50;;;;;;;3.10;2.50;;;15.00;99.90;;;;;;5052796;28;20196;-41
2022/06/07 05:23:16;;;;;;;5.33;2.70;;;15.00;99.90;;;;;;5049714;28;20194;-40
2022/06/07 05:25:58;;;;;;;5.10;2.60;;;15.10;99.90;;;;;;5046373;28;20188;-41
2022/06/07 05:28:24;;;;;;;5.33;2.53;;;15.10;99.90;;;;;;5058653;28;20181;-40
2022/06/07 05:30:49;;;;;;;5.53;2.53;;;15.20;99.90;;;;;;5048738;28;20472;-40
2022/06/07 05:33:15;;;;;;;6.00;2.40;;;15.10;99.90;;;;;;5045161;28;20774;-40
2022/06/07 05:35:42;;;;;;;5.03;3.10;;;15.10;99.90;;;;;;5048372;28;20224;-40
2022/06/07 05:38:10;;;;;;;4.13;2.60;;;15.00;99.90;;;;;;5061805;28;20220;-40
2022/06/07 05:40:36;;;;;;;2.97;2.20;;;15.10;99.90;;;;;;5047831;28;20455;-39
2022/06/07 05:43:02;;;;;;;2.50;2.30;;;15.20;99.90;;;;;;5066274;28;20443;-39
2022/06/07 05:45:27;;;;;;;3.70;2.60;;;15.20;99.90;;;;;;5069626;28;20195;-40
2022/06/07 05:47:53;;;;;;;3.57;2.23;;;15.30;99.90;;;;;;5065439;28;20202;-43
2022/06/07 05:50:19;;;;;;;4.13;2.60;;;15.30;99.90;;;;;;5053674;28;20213;-40
2022/06/07 05:52:44;;;;;;;4.03;2.83;;;15.40;99.90;;;;;;5063148;28;20682;-40
2022/06/07 05:55:10;;;;;;;2.87;2.57;;;15.40;99.90;;;;;;5070777;28;20185;-41
2022/06/07 05:57:36;;;;;;;5.17;2.57;;;15.40;99.90;;;;;;5059229;28;20200;-40
2022/06/07 06:00:04;;;;;;;6.50;2.30;;;15.50;99.90;;;;;;5072553;28;20568;-40
2022/06/07 06:02:30;;;;;;;3.97;1.90;;;15.50;99.90;;;;;;5067944;28;20193;-40
2022/06/07 06:04:56;;;;;;;3.47;2.40;;;15.40;99.90;;;;;;5057716;28;21081;-39
2022/06/07 06:07:21;;;;;;;3.17;2.50;;;15.50;99.90;;;;;;5056961;28;20196;-40
2022/06/07 06:12:32;;;;;;;4.97;3.00;;;15.50;99.90;;;;;;5063881;28;20242;-40
2022/06/07 06:14:57;;;;;;;3.10;2.47;;;15.40;99.90;;;;;;5071676;28;20423;-40
2022/06/07 06:17:23;;;;;;;4.10;2.60;;;15.40;99.90;;;;;;5070020;28;20189;-40
2022/06/07 06:19:49;;;;;;;6.63;2.80;;;15.50;99.90;;;;;;5053386;28;20186;-41
2022/06/07 06:22:15;;;;;;;2.83;2.53;;;15.50;99.90;;;;;;5056627;28;20221;-40
2022/06/07 06:24:40;;;;;;;2.80;2.20;;;15.50;99.90;;;;;;5065840;28;20204;-40
2022/06/07 06:27:06;;;;;;;2.80;2.20;;;15.60;99.90;;;;;;5067470;28;20660;-40
2022/06/07 06:29:32;;;;;;;2.33;2.13;;;15.70;99.90;;;;;;5071683;28;20470;-40
2022/06/07 06:31:58;;;;;;;3.70;2.53;;;15.60;99.90;;;;;;5064147;28;20190;-39
2022/06/07 06:34:29;;;;;;;3.20;2.60;;;15.70;99.90;;;;;;5053024;28;20477;-39
2022/06/07 06:36:58;;;;;;;4.27;2.40;;;15.80;99.90;;;;;;5052738;28;20615;-39
2022/06/07 06:39:24;;;;;;;5.00;2.70;;;15.80;99.90;;;;;;5051299;28;20435;-40
2022/06/07 06:41:50;;;;;;;3.00;2.43;;;15.80;99.90;;;;;;5051326;28;20412;-41
2022/06/07 06:44:16;;;;;;;2.77;2.57;;;15.90;99.90;;;;;;5053157;28;20523;-40
2022/06/07 06:46:45;;;;;;;4.77;2.40;;;16.10;99.90;;;;;;5051260;28;20413;-42
2022/06/07 06:49:13;;;;;;;2.80;2.40;;;16.50;99.90;;;;;;5050574;28;20570;-40
2022/06/07 06:51:39;;;;;;;3.30;2.20;;;16.90;99.90;;;;;;5058124;28;20444;-39
2022/06/07 06:54:05;;;;;;;3.30;2.50;;;17.30;99.90;;;;;;5062223;28;20435;-40
2022/06/07 06:56:32;;;;;;;6.47;2.77;;;17.60;99.90;;;;;;5065002;28;20954;-40
2022/06/07 06:58:59;;;;;;;2.63;2.17;;;17.80;99.90;;;;;;5066895;28;20458;-40
2022/06/07 07:01:31;;;;;;;4.40;2.23;;;18.00;99.90;;;;;;5071474;28;20412;-39
2022/06/07 07:04:02;;;;;;;3.33;2.60;;;18.00;99.90;;;;;;5058896;28;20436;-41
2022/06/07 07:06:28;;;;;;;4.63;2.10;;;18.00;99.90;;;;;;5052902;28;20420;-40
2022/06/07 07:08:55;;;;;;;2.60;2.17;;;18.20;99.90;;;;;;5055804;28;20459;-40
2022/06/07 07:11:42;;;;;;;3.70;2.30;;;18.40;99.90;;;;;;5053391;28;20424;-40
2022/06/07 07:14:09;;;;;;;2.23;1.90;;;18.60;99.90;;;;;;5046761;28;20851;-40
2022/06/07 07:16:42;;;;;;;2.67;2.10;;;18.80;99.90;;;;;;5057033;28;20429;-41
2022/06/07 07:19:08;;;;;;;1.90;1.60;;;18.50;99.90;;;;;;5050394;28;20523;-39
2022/06/07 07:21:37;;;;;;;2.30;1.50;;;18.60;99.90;;;;;;5053196;28;20423;-40
2022/06/07 07:24:05;;;;;;;3.70;1.70;;;18.70;99.90;;;;;;5062062;28;20426;-40
2022/06/07 07:26:32;;;;;;;4.20;1.57;;;18.90;99.90;;;;;;5070430;28;20428;-39
2022/06/07 07:28:59;;;;;;;2.10;1.90;;;19.00;99.90;;;;;;5070671;28;20435;-39
2022/06/07 07:31:31;;;;;;;2.90;1.90;;;19.00;99.90;;;;;;5062183;28;20424;-41
2022/06/07 07:33:59;;;;;;;2.20;1.73;;;19.00;99.90;;;;;;5048597;28;20436;-40
2022/06/07 07:36:26;;;;;;;3.37;2.17;;;19.00;99.90;;;;;;5054391;28;21094;-44
2022/06/07 07:38:52;;;;;;;4.17;2.10;;;19.00;99.90;;;;;;5049937;28;20427;-44
2022/06/07 07:41:26;;;;;;;2.67;1.90;;;19.00;99.90;;;;;;5067470;28;20455;-40
2022/06/07 07:43:54;;;;;;;2.63;1.53;;;19.00;99.90;;;;;;5059103;28;20428;-40
2022/06/07 07:46:22;;;;;;;3.30;1.90;;;19.20;99.90;;;;;;5049203;28;20428;-41
2022/06/07 07:48:49;;;;;;;2.20;1.70;;;19.30;99.90;;;;;;5053581;28;20440;-40
2022/06/07 07:51:21;;;;;;;2.00;1.70;;;19.30;99.90;;;;;;5055851;28;20977;-40
2022/06/07 07:53:47;;;;;;;2.30;1.60;;;19.30;99.90;;;;;;5055470;28;20926;-40
2022/06/07 07:56:14;;;;;;;1.77;1.63;;;19.40;99.90;;;;;;5070310;28;20931;-40
2022/06/07 07:58:40;;;;;;;2.60;1.80;;;19.50;99.90;;;;;;5064611;28;21407;-39
2022/06/07 08:01:12;;;;;;;2.70;2.00;;;19.60;99.90;;;;;;5070286;28;20779;-41
2022/06/07 08:03:39;;;;;;;7.33;3.43;;;19.50;99.90;;;;;;5064950;28;20440;-41
2022/06/07 08:06:10;;;;;;;2.80;1.73;;;19.30;99.90;;;;;;5052768;28;20954;-40
2022/06/07 08:08:36;;;;;;;4.90;2.20;;;19.30;99.90;;;;;;5054315;28;20439;-41
2022/06/07 08:11:03;;;;;;;3.37;2.10;;;19.30;99.90;;;;;;5070065;28;20481;-40
2022/06/07 08:13:28;;;;;;;3.67;1.87;;;19.40;99.90;;;;;;5068459;28;20435;-40
2022/06/07 08:15:54;;;;;;;2.07;1.87;;;19.40;99.90;;;;;;5069578;28;20428;-40
2022/06/07 08:18:23;;;;;;;2.27;1.87;;;19.30;99.90;;;;;;5066312;28;20251;-40
2022/06/07 08:20:49;;;;;;;4.67;2.20;;;19.30;99.90;;;;;;5053295;28;20427;-39
2022/06/07 08:23:15;;;;;;;5.43;2.10;;;19.40;99.90;;;;;;5059845;28;20434;-40
2022/06/07 08:25:41;;;;;;;2.40;1.97;;;19.30;99.90;;;;;;5069997;28;20824;-41
2022/06/07 08:28:07;;;;;;;5.23;2.30;;;19.30;99.90;;;;;;5058429;28;20574;-41
2022/06/07 08:30:36;;;;;;;4.40;2.10;;;19.30;99.90;;;;;;5069219;28;20200;-40
2022/06/07 08:37:32;;;;;;;5.00;2.00;;;19.20;99.90;;;;;;5056222;28;20459;-42
2022/06/07 08:38:34;;;;;;;2.60;1.90;;;19.10;99.90;;;;;;5055955;28;20430;-40
2022/06/07 08:41:00;;;;;;;1.73;1.60;;;19.20;99.90;;;;;;5069005;28;20431;-41
2022/06/07 08:43:25;;;;;;;2.90;2.00;;;19.30;99.90;;;;;;5061771;28;20435;-42
2022/06/07 08:45:53;;;;;;;2.60;2.40;;;19.30;99.90;;;;;;5069160;28;20430;-40
2022/06/07 08:48:26;;;;;;;2.67;1.53;;;19.30;99.90;;;;;;5066967;28;20189;-41
2022/06/07 08:51:13;;;;;;;3.47;1.97;;;19.30;99.90;;;;;;5054366;28;20598;-41
2022/06/07 08:53:44;;;;;;;2.17;1.97;;;19.50;99.90;;;;;;5050571;28;20420;-39
2022/06/07 08:56:17;;;;;;;3.13;1.90;;;19.70;99.90;;;;;;5068877;28;20443;-40
2022/06/07 08:58:48;;;;;;;2.97;2.13;;;19.80;99.90;;;;;;5066042;28;20423;-39
2022/06/07 09:01:35;;;;;;;3.50;1.73;;;19.90;99.90;;;;;;5067877;28;20454;-40
2022/06/07 09:04:19;;;;;;;2.40;1.60;;;20.00;99.90;;;;;;5063836;28;20443;-39
2022/06/07 09:06:51;;;;;;;3.37;1.70;;;20.10;99.90;;;;;;5042375;28;20420;-39
2022/06/07 09:09:21;;;;;;;2.40;1.80;;;20.20;99.90;;;;;;5052707;28;20512;-40
2022/06/07 09:12:09;;;;;;;5.57;2.00;;;20.30;99.90;;;;;;5069060;28;21042;-41
2022/06/07 09:14:50;;;;;;;4.57;1.97;;;20.40;99.40;;;;;;5059823;28;20983;-41
2022/06/07 09:17:29;;;;;;;3.07;1.87;;;20.50;99.00;;;;;;5068408;28;20427;-40
2022/06/07 09:19:56;;;;;;;2.07;1.60;;;20.50;99.80;;;;;;5055876;28;20428;-40
2022/06/07 09:22:29;;;;;;;4.97;1.83;;;20.40;99.30;;;;;;5059289;28;20770;-40
2022/06/07 09:25:13;;;;;;;3.00;1.70;;;20.30;99.90;;;;;;5064976;28;20895;-40
2022/06/07 09:27:39;;;;;;;4.87;2.47;;;20.40;99.90;;;;;;5061834;28;20427;-40
2022/06/07 09:30:20;;;;;;;3.70;1.70;;;20.30;99.40;;;;;;5067178;28;20803;-39
2022/06/07 09:32:49;;;;;;;2.90;1.90;;;20.40;99.80;;;;;;5055474;28;20416;-40
2022/06/07 09:35:22;;;;;;;4.07;2.00;;;20.30;99.60;;;;;;5051499;28;20968;-40
2022/06/07 09:38:04;;;;;;;5.30;2.03;;;20.10;99.90;;;;;;5049285;28;20416;-40
2022/06/07 09:40:32;;;;;;;2.93;1.73;;;20.00;99.90;;;;;;5058247;28;20415;-41
2022/06/07 09:43:04;;;;;;;2.70;2.50;;;20.00;99.90;;;;;;5063142;28;20906;-40
2022/06/07 09:46:05;;;;;;;3.23;1.90;;;19.90;99.90;;;;;;5066718;28;20426;-39
2022/06/07 09:48:36;;;;;;;2.70;1.90;;;19.90;99.90;;;;;;5065672;28;20430;-40
2022/06/07 09:51:20;;;;;;;1.90;1.60;;;19.70;99.90;;;;;;5048524;28;20448;-40
2022/06/07 09:53:56;;;;;;;4.47;2.13;;;19.70;99.90;;;;;;5039404;28;20458;-40
2022/06/07 09:56:45;;;;;;;3.10;2.10;;;19.60;99.90;;;;;;5042872;28;20530;-39
2022/06/07 09:59:43;;;;;;;1.73;1.60;;;19.70;99.90;;;;;;5051555;28;20431;-40
2022/06/07 10:02:45;;;;;;;5.00;2.10;;;19.90;99.90;;;;;;5048505;28;20464;-40
2022/06/07 10:05:31;;;;;;;1.90;1.80;;;19.90;99.90;;;;;;5045117;28;20523;-40
2022/06/07 10:08:30;;;;;;;4.60;2.13;;;20.00;99.90;;;;;;5052069;28;20425;-40
2022/06/07 10:11:08;;;;;;;2.93;2.60;;;20.00;99.90;;;;;;5038687;28;20464;-39
2022/06/07 10:13:47;;;;;;;2.80;2.30;;;20.00;99.90;;;;;;5049440;28;20420;-40
2022/06/07 10:16:30;;;;;;;4.57;2.10;;;20.20;99.90;;;;;;5051895;28;20495;-40
2022/06/07 10:19:10;;;;;;;2.77;2.20;;;20.20;99.90;;;;;;5050928;28;20431;-40
2022/06/07 10:21:58;;;;;;;3.63;2.00;;;20.20;99.90;;;;;;5049928;28;20416;-39
2022/06/07 10:24:42;;;;;;;4.03;2.03;;;19.90;99.90;;;;;;5048569;28;20435;-40
2022/06/07 10:27:18;;;;;;;3.33;2.20;;;19.80;99.90;;;;;;5061734;28;20494;-40
2022/06/07 10:30:07;;;;;;;3.03;2.17;;;19.80;99.90;;;;;;5049156;28;20471;-39
2022/06/07 10:32:42;;;;;;;3.13;2.00;;;19.80;99.90;;;;;;5049065;28;20423;-40
2022/06/07 10:35:18;;;;;;;3.33;2.40;;;20.00;99.90;;;;;;5047106;28;20431;-40
2022/06/07 10:38:12;;;;;;;2.30;1.93;;;20.20;99.90;;;;;;5064870;28;20972;-40
2022/06/07 10:41:13;;;;;;;4.97;1.70;;;20.30;99.90;;;;;;5031535;28;20443;-40
2022/06/07 10:43:58;;;;;;;2.13;1.80;;;20.50;99.90;;;;;;5041087;28;21451;-39
2022/06/07 10:46:27;;;;;;;3.30;1.60;;;20.60;99.90;;;;;;5051970;28;20412;-41
2022/06/07 10:49:21;;;;;;;2.23;1.83;;;20.70;99.90;;;;;;5051025;28;20825;-40
2022/06/07 10:54:46;;;;;;;2.30;2.00;;;20.50;99.90;;;;;;5047811;28;20412;-42
2022/06/07 10:57:37;;;;;;;2.20;2.00;;;20.50;99.90;;;;;;5049535;28;20459;-39
2022/06/07 11:00:35;;;;;;;5.30;1.90;;;20.60;99.90;;;;;;5047256;28;20421;-42
2022/06/07 11:03:40;;;;;;;4.57;1.80;;;20.80;99.90;;;;;;5048636;28;20428;-39
2022/06/07 11:09:22;;;;;;;3.40;1.90;;;21.20;99.90;;;;;;5047419;28;20466;-40
2022/06/07 11:12:01;;;;;;;3.30;1.60;;;21.30;99.90;;;;;;5050970;28;20431;-40
2022/06/07 11:14:33;;;;;;;3.17;1.87;;;21.40;99.90;;;;;;5066316;28;20430;-41
2022/06/07 11:17:02;;;;;;;3.97;1.63;;;21.60;99.90;;;;;;5066920;28;20422;-40
2022/06/07 11:19:30;;;;;;;2.83;1.73;;;21.50;99.90;;;;;;5053563;28;20444;-39
2022/06/07 11:22:00;;;;;;;3.10;2.00;;;21.60;99.90;;;;;;5059340;28;20419;-40
2022/06/07 11:24:29;;;;;;;4.17;1.83;;;21.50;99.90;;;;;;5056735;28;20972;-39
2022/06/07 11:26:55;;;;;;;3.20;1.70;;;21.50;99.90;;;;;;5069345;28;20421;-40
2022/06/07 11:29:30;;;;;;;2.07;1.60;;;21.40;99.90;;;;;;5069456;28;20455;-39
2022/06/07 11:31:58;;;;;;;1.73;1.47;;;21.30;99.90;;;;;;5063562;28;20300;-43
2022/06/07 11:34:31;;;;;;;2.70;1.47;;;21.30;99.90;;;;;;5054407;28;20499;-40
2022/06/07 11:37:02;;;;;;;1.83;1.73;;;21.10;99.90;;;;;;5053157;28;20811;-40
2022/06/07 11:39:38;;;;;;;2.90;1.80;;;21.20;99.90;;;;;;5059513;28;20451;-40
2022/06/07 11:42:07;;;;;;;3.10;1.90;;;21.20;99.90;;;;;;5070294;28;20789;-40
2022/06/07 11:44:43;;;;;;;4.40;2.00;;;21.10;99.90;;;;;;5059720;28;20423;-40
2022/06/07 11:47:15;;;;;;;3.60;2.23;;;21.10;99.90;;;;;;5070025;28;20434;-40
2022/06/07 11:49:46;;;;;;;4.27;2.13;;;21.20;99.90;;;;;;5066693;28;20467;-40
2022/06/07 11:52:12;;;;;;;2.00;1.90;;;21.20;99.90;;;;;;5057564;28;20415;-41
2022/06/07 11:54:45;;;;;;;1.90;1.67;;;21.10;99.90;;;;;;5057030;28;20982;-41
2022/06/07 11:57:33;;;;;;;3.37;1.70;;;21.00;99.90;;;;;;5068417;28;20192;-40
2022/06/07 12:00:17;;;;;;;2.30;2.10;;;21.10;99.90;;;;;;5064089;28;20519;-41
2022/06/07 12:03:08;;;;;;;1.70;1.60;;;21.10;99.90;;;;;;5070182;28;20434;-40
2022/06/07 12:05:42;;;;;;;2.80;1.67;;;21.10;99.90;;;;;;5061659;28;20498;-40
2022/06/07 12:08:23;;;;;;;2.93;2.33;;;21.20;99.90;;;;;;5053835;28;20424;-39
2022/06/07 12:11:03;;;;;;;1.70;1.60;;;21.10;99.90;;;;;;5053718;28;20498;-40
2022/06/07 12:13:52;;;;;;;1.57;1.47;;;21.10;99.90;;;;;;5067978;28;20424;-40
2022/06/07 12:16:38;;;;;;;1.70;1.60;;;21.10;99.90;;;;;;5069857;28;20437;-40
2022/06/07 12:19:07;;;;;;;2.37;1.93;;;20.90;99.90;;;;;;5069930;28;20798;-40
2022/06/07 12:21:41;;;;;;;2.73;1.40;;;20.90;99.90;;;;;;5055009;28;20428;-43
2022/06/07 12:24:14;;;;;;;3.20;1.57;;;20.90;99.90;;;;;;5052456;28;20431;-41
2022/06/07 12:26:41;;;;;;;3.00;1.97;;;20.90;99.90;;;;;;5066219;28;20933;-40
2022/06/07 12:29:07;;;;;;;1.73;1.40;;;20.80;99.90;;;;;;5061221;28;20418;-41
2022/06/07 12:31:40;;;;;;;1.70;1.60;;;20.70;99.90;;;;;;5062678;28;20863;-39
2022/06/07 12:34:16;;;;;;;2.37;1.37;;;20.70;99.90;;;;;;5053333;28;20185;-41
2022/06/07 12:36:44;;;;;;;1.53;1.43;;;20.60;99.90;;;;;;5053609;28;20431;-40
2022/06/07 12:39:15;;;;;;;2.47;2.07;;;20.70;99.90;;;;;;5054889;28;20486;-40
2022/06/07 12:42:15;;;;;;;1.70;1.60;;;20.70;99.90;;;;;;5043212;28;20423;-39
2022/06/07 12:44:41;;;;;;;3.10;1.80;;;20.50;99.90;;;;;;5058142;28;20784;-41
2022/06/07 12:47:32;;;;;;;2.00;1.43;;;20.60;99.90;;;;;;5068873;28;20423;-40
2022/06/07 12:49:59;;;;;;;2.13;1.87;;;20.50;99.90;;;;;;5067236;28;20466;-40
2022/06/07 12:52:27;;;;;;;2.30;1.90;;;20.60;99.90;;;;;;5052287;28;20413;-40
2022/06/07 12:55:02;;;;;;;3.17;2.00;;;20.70;99.90;;;;;;5049652;28;20924;-41
2022/06/07 12:57:37;;;;;;;2.10;2.00;;;20.60;99.90;;;;;;5064421;28;20549;-40
2022/06/07 13:00:20;;;;;;;3.80;1.73;;;20.50;99.90;;;;;;5066303;28;20423;-40
2022/06/07 13:03:06;;;;;;;2.30;2.00;;;20.40;99.90;;;;;;5069223;28;21143;-40
2022/06/07 13:05:36;;;;;;;2.23;1.50;;;20.20;99.90;;;;;;5063193;28;20466;-42
2022/06/07 13:08:13;;;;;;;3.13;2.20;;;20.20;99.90;;;;;;5048614;28;20439;-40
2022/06/07 13:10:40;;;;;;;2.60;2.40;;;20.10;99.90;;;;;;5059248;28;20470;-40
2022/06/07 13:13:14;;;;;;;4.40;2.40;;;20.10;99.90;;;;;;5069120;28;20419;-40
2022/06/07 13:15:54;;;;;;;3.13;1.90;;;20.00;99.90;;;;;;5055952;28;20434;-40
2022/06/07 13:18:31;;;;;;;2.63;2.43;;;20.00;99.90;;;;;;5068430;28;20427;-40
2022/06/07 13:21:29;;;;;;;8.40;2.70;;;19.80;99.90;;;;;;5059709;28;20565;-40
2022/06/07 13:23:57;;;;;;;5.33;4.03;;;19.70;99.90;;;;;;5040657;28;20446;-40
2022/06/07 13:26:30;;;;;;;5.73;3.10;;;19.40;99.90;;;;;;5062536;28;20937;-40